createdAt,value
2018-10-12T00:00:35.385Z,12.49
2018-10-12T00:03:04.040Z,12.54
2018-10-12T00:05:32.624Z,12.47
2018-10-12T00:08:01.232Z,12.52
2018-10-12T00:10:29.810Z,12.46
2018-10-12T00:12:58.344Z,12.43
2018-10-12T00:15:27.300Z,12.54
2018-10-12T00:17:56.489Z,12.29
2018-10-12T00:20:25.061Z,12.41
2018-10-12T00:22:53.825Z,12.34
2018-10-12T00:25:22.804Z,12.32
2018-10-12T00:27:51.552Z,12.37
2018-10-12T00:30:20.537Z,12.23
2018-10-12T00:32:49.065Z,12.06
2018-10-12T00:35:17.616Z,12.05
2018-10-12T00:37:46.193Z,11.75
2018-10-12T00:40:14.768Z,11.76
2018-10-12T00:42:43.392Z,11.92
2018-10-12T00:45:12.514Z,12.03
2018-10-12T00:47:41.184Z,12.09
2018-10-12T00:50:09.945Z,12.13
2018-10-12T00:52:38.621Z,12.04
2018-10-12T00:55:07.368Z,12.02
2018-10-12T00:57:36.198Z,11.96
2018-10-12T01:00:04.926Z,11.75
2018-10-12T01:02:33.532Z,11.61
2018-10-12T01:05:02.174Z,11.58
2018-10-12T01:07:30.829Z,11.53
2018-10-12T01:09:59.500Z,11.50
2018-10-12T01:12:34.472Z,11.43
2018-10-12T01:15:03.601Z,11.58
2018-10-12T01:17:33.350Z,11.47
2018-10-12T01:20:02.672Z,11.70
2018-10-12T01:22:31.344Z,11.59
2018-10-12T01:25:01.521Z,11.64
2018-10-12T01:27:30.832Z,11.79
2018-10-12T01:29:59.448Z,11.56
2018-10-12T01:32:33.228Z,11.52
2018-10-12T01:35:01.853Z,11.48
2018-10-12T01:37:30.555Z,11.48
2018-10-12T01:39:59.124Z,11.40
2018-10-12T01:42:27.726Z,11.32
2018-10-12T01:44:57.068Z,11.38
2018-10-12T01:47:25.699Z,11.47
2018-10-12T01:49:54.357Z,11.50
2018-10-12T01:52:22.912Z,11.39
2018-10-12T01:54:51.728Z,11.25
2018-10-12T01:57:20.328Z,11.15
2018-10-12T01:59:49.172Z,11.15
2018-10-12T02:02:18.133Z,11.07
2018-10-12T02:04:46.762Z,11.07
2018-10-12T02:07:15.337Z,11.05
2018-10-12T02:09:44.029Z,10.97
2018-10-12T02:12:12.592Z,11.05
2018-10-12T02:14:41.133Z,11.22
2018-10-12T02:17:09.743Z,11.09
2018-10-12T02:19:38.380Z,11.09
2018-10-12T02:22:06.990Z,10.96
2018-10-12T02:24:35.829Z,10.91
2018-10-12T02:27:04.426Z,10.80
2018-10-12T02:29:32.968Z,10.72
2018-10-12T02:32:01.545Z,10.83
2018-10-12T02:34:30.141Z,10.76
2018-10-12T02:36:59.284Z,10.62
2018-10-12T02:39:27.897Z,10.71
2018-10-12T02:41:56.568Z,10.62
2018-10-12T02:44:25.092Z,10.62
2018-10-12T02:46:53.789Z,10.63
2018-10-12T02:49:22.365Z,10.55
2018-10-12T02:51:51.025Z,10.71
2018-10-12T02:54:19.608Z,10.87
2018-10-12T02:56:48.250Z,10.77
2018-10-12T02:59:16.940Z,10.77
2018-10-12T03:01:45.593Z,10.65
2018-10-12T03:04:14.260Z,10.58
2018-10-12T03:06:42.944Z,10.62
2018-10-12T03:09:12.905Z,10.57
2018-10-12T03:11:41.925Z,10.49
2018-10-12T03:14:10.560Z,10.62
2018-10-12T03:16:39.200Z,10.52
2018-10-12T03:19:07.767Z,10.38
2018-10-12T03:21:36.349Z,10.43
2018-10-12T03:24:05.048Z,10.55
2018-10-12T03:26:33.581Z,10.52
2018-10-12T03:29:02.149Z,10.61
2018-10-12T03:31:30.846Z,10.54
2018-10-12T03:33:59.417Z,10.62
2018-10-12T03:36:28.421Z,10.55
2018-10-12T03:38:57.093Z,10.42
2018-10-12T03:41:25.793Z,10.35
2018-10-12T03:43:54.460Z,10.31
2018-10-12T03:46:23.085Z,10.32
2018-10-12T03:48:51.629Z,10.19
2018-10-12T03:51:20.240Z,10.36
2018-10-12T03:53:49.004Z,10.19
2018-10-12T03:56:17.613Z,10.35
2018-10-12T03:58:46.141Z,10.32
2018-10-12T04:01:14.748Z,10.35
2018-10-12T04:03:43.405Z,10.32
2018-10-12T04:06:12.081Z,10.38
2018-10-12T04:08:40.725Z,10.34
2018-10-12T04:11:09.336Z,10.42
2018-10-12T04:13:37.908Z,10.40
2018-10-12T04:16:06.517Z,10.36
2018-10-12T04:18:35.112Z,10.37
2018-10-12T04:21:03.648Z,10.48
2018-10-12T04:23:32.292Z,10.58
2018-10-12T04:26:00.877Z,10.59
2018-10-12T04:28:29.804Z,10.77
2018-10-12T04:30:58.452Z,10.92
2018-10-12T04:33:27.420Z,10.93
2018-10-12T04:35:56.032Z,10.98
2018-10-12T04:38:24.849Z,10.89
2018-10-12T04:41:01.814Z,10.92
2018-10-12T04:43:31.128Z,10.96
2018-10-12T04:46:00.529Z,10.83
2018-10-12T04:48:29.516Z,10.89
2018-10-12T04:50:58.180Z,10.94
2018-10-12T04:53:26.830Z,11.08
2018-10-12T04:55:55.429Z,11.11
2018-10-12T04:58:24.232Z,11.04
2018-10-12T05:00:52.935Z,11.03
2018-10-12T05:03:21.500Z,11.10
2018-10-12T05:05:50.153Z,11.00
2018-10-12T05:08:19.117Z,11.11
2018-10-12T05:10:47.816Z,11.14
2018-10-12T05:13:16.641Z,11.20
2018-10-12T05:15:45.197Z,11.29
2018-10-12T05:18:13.782Z,11.24
2018-10-12T05:20:42.409Z,11.26
2018-10-12T05:23:11.073Z,11.34
2018-10-12T05:25:39.668Z,11.27
2018-10-12T05:28:08.441Z,11.38
2018-10-12T05:30:36.964Z,11.43
2018-10-12T05:33:05.633Z,11.52
2018-10-12T05:35:34.517Z,11.56
2018-10-12T05:38:03.340Z,11.57
2018-10-12T05:40:31.937Z,11.57
2018-10-12T05:43:01.295Z,11.45
2018-10-12T05:45:29.789Z,11.39
2018-10-12T05:48:09.623Z,11.44
2018-10-12T05:50:38.285Z,11.53
2018-10-12T05:53:07.096Z,11.61
2018-10-12T05:55:36.612Z,11.52
2018-10-12T05:58:05.592Z,11.42
2018-10-12T06:00:34.197Z,11.52
2018-10-12T06:03:02.797Z,11.49
2018-10-12T06:05:31.421Z,11.47
2018-10-12T06:07:59.999Z,11.53
2018-10-12T06:10:28.629Z,11.23
2018-10-12T06:12:57.210Z,11.31
2018-10-12T06:15:26.700Z,11.29
2018-10-12T06:17:55.352Z,11.31
2018-10-12T06:20:23.886Z,11.12
2018-10-12T06:22:52.434Z,11.18
2018-10-12T06:25:21.084Z,11.13
2018-10-12T06:27:49.720Z,11.14
2018-10-12T06:30:18.373Z,11.16
2018-10-12T06:32:47.096Z,11.18
2018-10-12T06:35:15.641Z,10.95
2018-10-12T06:37:44.156Z,10.88
2018-10-12T06:40:12.970Z,11.00
2018-10-12T06:42:41.645Z,11.19
2018-10-12T06:45:10.309Z,11.22
2018-10-12T06:47:38.941Z,11.28
2018-10-12T06:50:07.943Z,11.41
2018-10-12T06:52:36.944Z,11.48
2018-10-12T06:55:05.904Z,11.64
2018-10-12T06:57:34.554Z,11.66
2018-10-12T07:00:03.303Z,11.84
2018-10-12T07:02:32.156Z,11.78
2018-10-12T07:05:01.104Z,11.85
2018-10-12T07:07:29.816Z,11.97
2018-10-12T07:09:58.586Z,12.09
2018-10-12T07:12:27.248Z,12.34
2018-10-12T07:14:55.852Z,12.45
2018-10-12T07:17:24.576Z,12.58
2018-10-12T07:19:53.150Z,12.79
2018-10-12T07:22:21.828Z,12.89
2018-10-12T07:24:50.440Z,12.96
2018-10-12T07:27:18.997Z,13.03
2018-10-12T07:29:47.663Z,13.17
2018-10-12T07:32:16.284Z,13.42
2018-10-12T07:34:44.904Z,13.44
2018-10-12T07:37:13.592Z,13.58
2018-10-12T07:39:42.265Z,13.73
2018-10-12T07:42:10.818Z,13.74
2018-10-12T07:44:39.387Z,13.87
2018-10-12T07:47:08.503Z,14.05
2018-10-12T07:49:37.126Z,14.15
2018-10-12T07:52:05.813Z,14.13
2018-10-12T07:54:34.480Z,14.31
2018-10-12T07:57:08.287Z,14.30
2018-10-12T07:59:37.173Z,14.42
2018-10-12T08:02:05.764Z,14.47
2018-10-12T08:04:34.355Z,14.63
2018-10-12T08:07:03.021Z,14.89
2018-10-12T08:09:31.628Z,14.91
2018-10-12T08:12:00.196Z,14.86
2018-10-12T08:14:29.153Z,15.09
2018-10-12T08:16:57.934Z,15.07
2018-10-12T08:19:26.505Z,15.26
2018-10-12T08:21:55.173Z,15.52
2018-10-12T08:24:23.872Z,15.52
2018-10-12T08:26:52.517Z,15.69
2018-10-12T08:29:24.289Z,15.84
2018-10-12T08:31:53.061Z,16.05
2018-10-12T08:34:21.653Z,16.23
2018-10-12T08:36:50.630Z,16.28
2018-10-12T08:39:19.216Z,16.25
2018-10-12T08:41:47.846Z,16.52
2018-10-12T08:44:16.768Z,16.59
2018-10-12T08:46:45.376Z,16.56
2018-10-12T08:49:13.921Z,16.78
2018-10-12T08:51:42.465Z,16.91
2018-10-12T08:54:11.076Z,17.01
2018-10-12T08:56:39.916Z,17.21
2018-10-12T08:59:09.226Z,17.13
2018-10-12T09:01:37.884Z,17.26
2018-10-12T09:04:06.600Z,17.50
2018-10-12T09:06:35.177Z,17.27
2018-10-12T09:09:05.556Z,17.71
2018-10-12T09:11:34.281Z,17.87
2018-10-12T09:14:02.868Z,17.96
2018-10-12T09:16:31.497Z,17.93
2018-10-12T09:19:00.181Z,18.03
2018-10-12T09:21:29.121Z,18.16
2018-10-12T09:23:57.680Z,18.47
2018-10-12T09:26:26.633Z,18.50
2018-10-12T09:28:55.280Z,18.51
2018-10-12T09:31:23.876Z,18.67
2018-10-12T09:33:52.528Z,18.61
2018-10-12T09:36:21.263Z,18.60
2018-10-12T09:38:49.805Z,18.91
2018-10-12T09:41:18.517Z,19.15
2018-10-12T09:43:47.042Z,19.14
2018-10-12T09:46:15.608Z,19.26
2018-10-12T09:48:44.230Z,19.42
2018-10-12T09:51:12.868Z,19.20
2018-10-12T09:53:41.540Z,19.40
2018-10-12T09:56:10.240Z,19.71
2018-10-12T09:58:38.851Z,19.88
2018-10-12T10:01:12.648Z,19.95
2018-10-12T10:03:46.364Z,19.94
2018-10-12T10:06:15.028Z,20.14
2018-10-12T10:08:43.829Z,20.45
2018-10-12T10:11:12.397Z,20.49
2018-10-12T10:13:41.223Z,20.75
2018-10-12T10:16:09.778Z,20.81
2018-10-12T10:18:38.340Z,20.92
2018-10-12T10:21:07.017Z,21.06
2018-10-12T10:23:35.937Z,21.09
2018-10-12T10:26:04.611Z,21.29
2018-10-12T10:28:33.206Z,21.38
2018-10-12T10:31:01.925Z,21.60
2018-10-12T10:33:30.521Z,21.78
2018-10-12T10:35:59.120Z,21.76
2018-10-12T10:38:27.661Z,21.85
2018-10-12T10:40:56.244Z,21.82
2018-10-12T10:43:24.897Z,21.92
2018-10-12T10:45:53.489Z,21.98
2018-10-12T10:48:22.269Z,22.09
2018-10-12T10:50:50.877Z,22.21
2018-10-12T10:53:19.488Z,22.33
2018-10-12T10:55:48.109Z,22.49
2018-10-12T10:58:16.784Z,22.54
2018-10-12T11:00:45.368Z,22.58
2018-10-12T11:03:13.934Z,22.70
2018-10-12T11:05:42.596Z,22.73
2018-10-12T11:08:11.176Z,22.91
2018-10-12T11:10:39.713Z,23.03
2018-10-12T11:13:08.485Z,23.24
2018-10-12T11:15:37.113Z,23.10
2018-10-12T11:18:06.126Z,23.06
2018-10-12T11:20:34.748Z,23.12
2018-10-12T11:23:03.329Z,23.17
2018-10-12T11:25:31.906Z,23.22
2018-10-12T11:28:00.517Z,23.26
2018-10-12T11:30:29.096Z,23.38
2018-10-12T11:32:57.843Z,23.32
2018-10-12T11:35:26.430Z,23.52
2018-10-12T11:37:55.567Z,23.68
2018-10-12T11:40:24.161Z,23.69
2018-10-12T11:43:03.841Z,23.65
2018-10-12T11:45:32.490Z,23.73
2018-10-12T11:48:01.065Z,23.81
2018-10-12T11:50:29.637Z,23.69
2018-10-12T11:52:58.232Z,23.90
2018-10-12T11:55:26.837Z,24.07
2018-10-12T11:57:55.689Z,24.30
2018-10-12T12:00:24.344Z,24.20
2018-10-12T12:02:52.941Z,24.28
2018-10-12T12:05:21.599Z,24.34
2018-10-12T12:07:50.105Z,24.28
2018-10-12T12:10:18.617Z,24.30
2018-10-12T12:12:47.277Z,24.17
2018-10-12T12:15:15.938Z,24.07
2018-10-12T12:17:44.529Z,24.29
2018-10-12T12:20:13.241Z,24.44
2018-10-12T12:22:42.161Z,24.33
2018-10-12T12:25:10.700Z,24.48
2018-10-12T12:27:39.359Z,24.65
2018-10-12T12:30:08.037Z,24.51
2018-10-12T12:32:36.563Z,24.47
2018-10-12T12:35:05.431Z,24.39
2018-10-12T12:37:33.893Z,24.25
2018-10-12T12:40:02.617Z,24.33
2018-10-12T12:42:31.364Z,24.44
2018-10-12T12:44:59.890Z,24.49
2018-10-12T12:47:28.562Z,24.61
2018-10-12T12:49:57.344Z,24.55
2018-10-12T12:52:26.003Z,24.60
2018-10-12T12:54:54.552Z,24.52
2018-10-12T12:57:23.116Z,24.49
2018-10-12T12:59:51.804Z,24.53
2018-10-12T13:02:20.360Z,24.67
2018-10-12T13:04:48.900Z,24.74
2018-10-12T13:07:17.511Z,24.90
2018-10-12T13:09:46.149Z,24.88
2018-10-12T13:12:14.765Z,24.83
2018-10-12T13:14:43.704Z,24.74
2018-10-12T13:17:12.404Z,25.03
2018-10-12T13:19:41.232Z,24.84
2018-10-12T13:22:09.882Z,24.96
2018-10-12T13:24:38.420Z,24.92
2018-10-12T13:27:06.970Z,25.00
2018-10-12T13:29:35.768Z,24.92
2018-10-12T13:32:04.418Z,24.81
2018-10-12T13:34:33.010Z,24.55
2018-10-12T13:37:01.637Z,24.51
2018-10-12T13:39:30.274Z,24.63
2018-10-12T13:41:58.966Z,24.73
2018-10-12T13:44:27.657Z,24.88
2018-10-12T13:46:56.230Z,24.80
2018-10-12T13:49:24.886Z,24.95
2018-10-12T13:51:53.557Z,25.01
2018-10-12T13:54:22.195Z,25.17
2018-10-12T13:56:55.019Z,24.97
2018-10-12T13:59:23.557Z,25.15
2018-10-12T14:01:52.110Z,25.08
2018-10-12T14:04:20.745Z,25.11
2018-10-12T14:06:49.429Z,24.99
2018-10-12T14:09:18.091Z,24.86
2018-10-12T14:11:46.665Z,24.83
2018-10-12T14:14:15.362Z,24.83
2018-10-12T14:16:43.893Z,24.55
2018-10-12T14:19:12.824Z,24.87
2018-10-12T14:21:41.237Z,24.64
2018-10-12T14:24:09.793Z,24.92
2018-10-12T14:26:38.530Z,24.79
2018-10-12T14:29:07.096Z,24.84
2018-10-12T14:31:35.757Z,25.01
2018-10-12T14:34:04.311Z,25.02
2018-10-12T14:36:32.825Z,25.04
2018-10-12T14:39:01.474Z,25.02
2018-10-12T14:41:30.129Z,25.00
2018-10-12T14:43:58.888Z,25.01
2018-10-12T14:46:27.381Z,24.88
2018-10-12T14:48:56.001Z,24.92
2018-10-12T14:51:24.612Z,25.03
2018-10-12T14:53:53.205Z,24.95
2018-10-12T14:56:21.809Z,24.99
2018-10-12T14:58:50.340Z,25.12
2018-10-12T15:01:18.878Z,25.12
2018-10-12T15:03:47.430Z,25.03
2018-10-12T15:06:16.447Z,25.06
2018-10-12T15:08:45.095Z,25.10
2018-10-12T15:11:13.768Z,25.09
2018-10-12T15:13:42.337Z,25.02
2018-10-12T15:16:10.956Z,25.01
2018-10-12T15:18:39.693Z,25.06
2018-10-12T15:21:08.339Z,24.95
2018-10-12T15:23:36.953Z,24.91
2018-10-12T15:26:05.660Z,24.78
2018-10-12T15:28:34.226Z,24.81
2018-10-12T15:31:02.766Z,24.83
2018-10-12T15:33:31.644Z,24.73
2018-10-12T15:36:00.205Z,24.73
2018-10-12T15:38:28.839Z,24.57
2018-10-12T15:40:57.429Z,24.52
2018-10-12T15:43:26.024Z,24.42
2018-10-12T15:45:54.576Z,24.24
2018-10-12T15:48:23.210Z,24.18
2018-10-12T15:50:51.896Z,24.08
2018-10-12T15:53:20.472Z,24.02
2018-10-12T15:55:49.136Z,23.98
2018-10-12T15:58:17.675Z,23.93
2018-10-12T16:00:46.245Z,23.78
2018-10-12T16:03:14.885Z,23.50
2018-10-12T16:05:43.485Z,23.38
2018-10-12T16:08:12.112Z,23.11
2018-10-12T16:10:40.796Z,22.87
2018-10-12T16:13:09.429Z,22.66
2018-10-12T16:15:38.024Z,22.55
2018-10-12T16:18:06.909Z,22.27
2018-10-12T16:20:35.596Z,22.25
2018-10-12T16:23:05.061Z,21.84
2018-10-12T16:25:56.382Z,21.79
2018-10-12T16:28:25.316Z,21.80
2018-10-12T16:30:54.857Z,21.59
2018-10-12T16:33:24.056Z,21.50
2018-10-12T16:35:53.957Z,21.45
2018-10-12T16:38:22.981Z,21.30
2018-10-12T16:40:51.873Z,21.06
2018-10-12T16:43:20.468Z,20.94
2018-10-12T16:45:50.320Z,20.86
2018-10-12T16:48:19.036Z,20.76
2018-10-12T16:50:47.740Z,20.72
2018-10-12T16:53:16.372Z,20.63
2018-10-12T16:55:45.038Z,20.41
2018-10-12T16:58:14.655Z,20.32
2018-10-12T17:00:43.621Z,20.40
2018-10-12T17:03:12.446Z,20.25
2018-10-12T17:05:41.025Z,20.20
2018-10-12T17:08:09.589Z,19.91
2018-10-12T17:10:38.180Z,19.82
2018-10-12T17:13:06.800Z,19.69
2018-10-12T17:15:35.433Z,19.49
2018-10-12T17:18:04.010Z,19.46
2018-10-12T17:20:32.616Z,19.31
2018-10-12T17:23:01.135Z,19.34
2018-10-12T17:25:29.733Z,19.26
2018-10-12T17:27:58.349Z,19.17
2018-10-12T17:30:26.969Z,18.98
2018-10-12T17:32:55.728Z,18.86
2018-10-12T17:35:24.376Z,18.86
2018-10-12T17:37:52.905Z,18.68
2018-10-12T17:40:21.645Z,18.71
2018-10-12T17:42:50.320Z,18.77
2018-10-12T17:45:18.901Z,18.73
2018-10-12T17:47:47.581Z,18.73
2018-10-12T17:50:16.114Z,18.73
2018-10-12T17:52:44.665Z,18.66
2018-10-12T17:55:13.320Z,18.72
2018-10-12T17:57:41.877Z,18.72
2018-10-12T18:00:11.014Z,18.58
2018-10-12T18:02:39.601Z,18.59
2018-10-12T18:05:08.871Z,18.61
2018-10-12T18:07:37.564Z,18.49
2018-10-12T18:10:07.222Z,18.26
2018-10-12T18:12:35.837Z,18.16
2018-10-12T18:15:05.008Z,18.01
2018-10-12T18:17:33.640Z,17.71
2018-10-12T18:20:02.269Z,17.57
2018-10-12T18:22:30.873Z,17.41
2018-10-12T18:24:59.488Z,17.34
2018-10-12T18:27:28.044Z,17.24
2018-10-12T18:29:56.673Z,17.15
2018-10-12T18:32:25.297Z,16.90
2018-10-12T18:34:53.965Z,16.88
2018-10-12T18:37:22.532Z,16.87
2018-10-12T18:39:51.217Z,16.75
2018-10-12T18:42:19.957Z,16.64
2018-10-12T18:44:48.658Z,16.56
2018-10-12T18:47:17.276Z,16.52
2018-10-12T18:49:45.794Z,16.38
2018-10-12T18:52:14.459Z,16.27
2018-10-12T18:54:43.249Z,16.22
2018-10-12T18:57:11.773Z,16.15
2018-10-12T18:59:40.386Z,16.06
2018-10-12T19:02:08.961Z,15.95
2018-10-12T19:04:37.691Z,16.05
2018-10-12T19:07:06.125Z,15.83
2018-10-12T19:09:34.757Z,15.61
2018-10-12T19:12:03.416Z,15.73
2018-10-12T19:14:31.973Z,15.60
2018-10-12T19:17:00.829Z,15.50
2018-10-12T19:19:29.638Z,15.40
2018-10-12T19:21:58.376Z,15.28
2018-10-12T19:24:27.057Z,15.45
2018-10-12T19:26:55.591Z,15.44
2018-10-12T19:29:24.305Z,15.37
2018-10-12T19:31:52.963Z,15.24
2018-10-12T19:34:21.507Z,15.23
2018-10-12T19:36:50.260Z,15.29
2018-10-12T19:39:18.939Z,15.14
2018-10-12T19:41:47.839Z,15.18
2018-10-12T19:44:16.500Z,15.02
2018-10-12T19:46:45.150Z,15.00
2018-10-12T19:49:14.004Z,14.84
2018-10-12T19:51:42.681Z,14.64
2018-10-12T19:54:11.233Z,14.60
2018-10-12T19:56:40.074Z,14.65
2018-10-12T19:59:08.763Z,14.78
2018-10-12T20:01:37.346Z,14.79
2018-10-12T20:04:06.040Z,14.75
2018-10-12T20:06:34.646Z,14.76
2018-10-12T20:09:04.061Z,14.66
2018-10-12T20:11:32.699Z,14.67
2018-10-12T20:14:01.316Z,14.69
2018-10-12T20:16:29.910Z,14.49
2018-10-12T20:18:58.492Z,14.59
2018-10-12T20:21:27.043Z,14.47
2018-10-12T20:23:55.714Z,14.52
2018-10-12T20:26:24.221Z,14.39
2018-10-12T20:28:52.888Z,14.34
2018-10-12T20:31:21.836Z,14.32
2018-10-12T20:33:50.485Z,14.19
2018-10-12T20:36:19.032Z,14.20
2018-10-12T20:38:47.905Z,14.15
2018-10-12T20:41:16.573Z,14.03
2018-10-12T20:43:45.184Z,14.03
2018-10-12T20:46:13.876Z,13.94
2018-10-12T20:48:42.472Z,13.90
2018-10-12T20:51:11.089Z,13.90
2018-10-12T20:53:39.701Z,14.06
2018-10-12T20:56:09.096Z,14.03
2018-10-12T20:58:37.657Z,13.98
2018-10-12T21:01:06.552Z,14.00
2018-10-12T21:03:35.145Z,13.86
2018-10-12T21:06:03.717Z,13.99
2018-10-12T21:08:32.377Z,13.83
2018-10-12T21:11:00.949Z,13.69
2018-10-12T21:13:29.528Z,13.63
2018-10-12T21:15:58.489Z,13.60
2018-10-12T21:18:27.033Z,13.59
2018-10-12T21:20:55.637Z,13.64
2018-10-12T21:23:24.284Z,13.52
2018-10-12T21:25:52.924Z,13.47
2018-10-12T21:28:21.624Z,13.42
2018-10-12T21:30:50.333Z,13.37
2018-10-12T21:33:18.877Z,13.44
2018-10-12T21:35:47.548Z,13.43
2018-10-12T21:38:16.157Z,13.40
2018-10-12T21:40:44.724Z,13.37
2018-10-12T21:43:13.324Z,13.30
2018-10-12T21:45:41.896Z,13.24
2018-10-12T21:48:10.436Z,13.28
2018-10-12T21:50:39.015Z,13.14
2018-10-12T21:53:07.604Z,13.27
2018-10-12T21:55:36.245Z,13.13
2018-10-12T21:58:04.777Z,13.17
2018-10-12T22:00:33.416Z,13.22
2018-10-12T22:03:02.009Z,13.13
2018-10-12T22:05:30.808Z,13.00
2018-10-12T22:07:59.427Z,12.97
2018-10-12T22:10:28.103Z,13.00
2018-10-12T22:12:56.772Z,12.94
2018-10-12T22:15:25.326Z,12.84
2018-10-12T22:17:53.879Z,12.89
2018-10-12T22:20:22.522Z,12.89
2018-10-12T22:22:51.231Z,12.84
2018-10-12T22:25:19.973Z,12.93
2018-10-12T22:27:48.606Z,12.89
2018-10-12T22:30:17.195Z,12.91
2018-10-12T22:32:45.736Z,12.82
2018-10-12T22:35:14.332Z,12.85
2018-10-12T22:37:42.988Z,12.83
2018-10-12T22:40:11.637Z,12.81
2018-10-12T22:42:40.369Z,12.81
2018-10-12T22:45:09.077Z,12.74
2018-10-12T22:47:37.708Z,12.88
2018-10-12T22:50:06.337Z,12.80
2018-10-12T22:52:34.936Z,12.54
2018-10-12T22:55:03.537Z,12.67
2018-10-12T22:57:32.095Z,12.52
2018-10-12T23:00:00.756Z,12.43
2018-10-12T23:02:29.304Z,12.47
2018-10-12T23:04:57.910Z,12.48
2018-10-12T23:07:26.533Z,12.52
2018-10-12T23:09:55.121Z,12.39
2018-10-12T23:12:23.689Z,12.30
2018-10-12T23:14:52.273Z,12.44
2018-10-12T23:17:20.953Z,12.41
2018-10-12T23:19:49.601Z,12.48
2018-10-12T23:22:18.169Z,12.31
2018-10-12T23:24:46.818Z,12.27
2018-10-12T23:27:15.664Z,12.23
2018-10-12T23:29:44.241Z,12.21
2018-10-12T23:32:12.792Z,12.15
2018-10-12T23:34:41.313Z,12.07
2018-10-12T23:37:09.893Z,11.96
2018-10-12T23:39:38.432Z,12.02
2018-10-12T23:42:07.148Z,11.96
2018-10-12T23:44:35.741Z,11.86
2018-10-12T23:47:04.415Z,12.03
2018-10-12T23:49:32.969Z,12.00
2018-10-12T23:52:01.569Z,11.84
2018-10-12T23:54:30.117Z,11.76
2018-10-12T23:56:58.676Z,11.89
2018-10-12T23:59:27.300Z,11.88
